Terminal Aerodrome Forecast
Issued by NWS

Home | Current Version | Previous Version | Text Only | Print | Product List | Glossary On
Versions: 1 2 3 4 5 6 7 8 9 10 11 12 13 14 15 16 17 18
000
FTUS46 KMTR 270540
TAFMRY
TAF
KMRY 270540Z 2706/2806 17003KT P6SM FEW015
      TEMPO 2706/2708 BKN015
     FM270800 18003KT P6SM OVC012
     FM271200 20003KT P6SM BKN009 OVC012
     FM271700 29005KT P6SM SCT012 BKN018
     FM271900 26010KT P6SM SCT020
     FM280100 23006KT P6SM BKN015=

USA.gov is the U.S. government's official web portal to all federal, state and local government web resources and services.